sensor_id;sensor_type;location;lat;lon;timestamp;temperature;humidity
827;DHT22;395;48.132;11.608;2023-05-18T00:01:18;10.20;1.00
827;DHT22;395;48.132;11.608;2023-05-18T00:03:44;10.10;1.00
827;DHT22;395;48.132;11.608;2023-05-18T00:06:10;10.20;1.00
827;DHT22;395;48.132;11.608;2023-05-18T00:08:36;10.00;1.00
827;DHT22;395;48.132;11.608;2023-05-18T00:11:03;10.00;1.00
827;DHT22;395;48.132;11.608;2023-05-18T00:13:30;9.90;1.00
827;DHT22;395;48.132;11.608;2023-05-18T00:15:56;9.90;1.10
827;DHT22;395;48.132;11.608;2023-05-18T00:18:22;9.90;1.60
827;DHT22;395;48.132;11.608;2023-05-18T00:20:52;9.90;1.80
827;DHT22;395;48.132;11.608;2023-05-18T00:23:28;9.90;1.70
827;DHT22;395;48.132;11.608;2023-05-18T00:26:01;9.90;1.60
827;DHT22;395;48.132;11.608;2023-05-18T00:28:27;9.90;1.70
827;DHT22;395;48.132;11.608;2023-05-18T00:30:54;9.90;1.50
827;DHT22;395;48.132;11.608;2023-05-18T00:33:20;9.90;1.50
827;DHT22;395;48.132;11.608;2023-05-18T00:35:46;9.90;1.30
827;DHT22;395;48.132;11.608;2023-05-18T00:38:12;9.90;1.10
827;DHT22;395;48.132;11.608;2023-05-18T00:40:39;9.90;1.00
827;DHT22;395;48.132;11.608;2023-05-18T00:43:05;9.90;1.00
827;DHT22;395;48.132;11.608;2023-05-18T00:45:31;9.90;1.00
827;DHT22;395;48.132;11.608;2023-05-18T00:47:57;9.90;1.00
827;DHT22;395;48.132;11.608;2023-05-18T00:50:22;9.90;1.60
827;DHT22;395;48.132;11.608;2023-05-18T00:52:48;9.90;1.00
827;DHT22;395;48.132;11.608;2023-05-18T00:55:15;9.90;1.10
827;DHT22;395;48.132;11.608;2023-05-18T00:57:42;9.90;1.10
827;DHT22;395;48.132;11.608;2023-05-18T01:00:10;9.90;1.40
827;DHT22;395;48.132;11.608;2023-05-18T01:02:38;9.90;1.10
827;DHT22;395;48.132;11.608;2023-05-18T01:05:10;9.80;1.10
827;DHT22;395;48.132;11.608;2023-05-18T01:07:38;9.80;1.10
827;DHT22;395;48.132;11.608;2023-05-18T01:10:04;9.80;1.20
827;DHT22;395;48.132;11.608;2023-05-18T01:12:38;9.80;1.00
827;DHT22;395;48.132;11.608;2023-05-18T01:15:15;9.70;1.00
827;DHT22;395;48.132;11.608;2023-05-18T01:17:45;9.70;1.00
827;DHT22;395;48.132;11.608;2023-05-18T01:20:42;9.70;1.00
827;DHT22;395;48.132;11.608;2023-05-18T01:28:24;9.60;1.40
827;DHT22;395;48.132;11.608;2023-05-18T01:30:53;9.60;1.50
827;DHT22;395;48.132;11.608;2023-05-18T01:33:19;9.50;1.30
827;DHT22;395;48.132;11.608;2023-05-18T01:35:45;9.50;1.70
827;DHT22;395;48.132;11.608;2023-05-18T01:38:20;9.50;1.90
827;DHT22;395;48.132;11.608;2023-05-18T01:43:36;9.40;1.90
827;DHT22;395;48.132;11.608;2023-05-18T01:46:16;9.40;2.60
827;DHT22;395;48.132;11.608;2023-05-18T01:48:47;9.30;2.50
827;DHT22;395;48.132;11.608;2023-05-18T01:51:15;9.30;2.40
827;DHT22;395;48.132;11.608;2023-05-18T01:53:52;9.30;2.30
827;DHT22;395;48.132;11.608;2023-05-18T01:56:19;9.20;2.50
827;DHT22;395;48.132;11.608;2023-05-18T01:58:46;9.20;2.80
827;DHT22;395;48.132;11.608;2023-05-18T02:01:13;9.20;3.40
827;DHT22;395;48.132;11.608;2023-05-18T02:03:42;9.20;3.70
827;DHT22;395;48.132;11.608;2023-05-18T02:06:07;9.20;3.70
827;DHT22;395;48.132;11.608;2023-05-18T02:08:33;9.10;3.70
827;DHT22;395;48.132;11.608;2023-05-18T02:10:59;9.10;3.70
827;DHT22;395;48.132;11.608;2023-05-18T02:13:24;9.10;3.70
827;DHT22;395;48.132;11.608;2023-05-18T02:15:50;9.10;3.70
827;DHT22;395;48.132;11.608;2023-05-18T02:18:16;9.10;4.00
827;DHT22;395;48.132;11.608;2023-05-18T02:20:41;9.10;4.10
827;DHT22;395;48.132;11.608;2023-05-18T02:23:07;9.10;3.90
827;DHT22;395;48.132;11.608;2023-05-18T02:25:32;9.00;4.10
827;DHT22;395;48.132;11.608;2023-05-18T02:27:58;9.00;4.10
827;DHT22;395;48.132;11.608;2023-05-18T02:30:24;9.00;4.40
827;DHT22;395;48.132;11.608;2023-05-18T02:32:49;9.00;4.70
827;DHT22;395;48.132;11.608;2023-05-18T02:35:16;9.00;5.00
827;DHT22;395;48.132;11.608;2023-05-18T02:37:42;9.00;5.30
827;DHT22;395;48.132;11.608;2023-05-18T02:40:12;9.00;5.50
827;DHT22;395;48.132;11.608;2023-05-18T02:42:38;9.00;5.30
827;DHT22;395;48.132;11.608;2023-05-18T02:45:05;9.00;5.60
827;DHT22;395;48.132;11.608;2023-05-18T02:47:31;9.00;5.60
827;DHT22;395;48.132;11.608;2023-05-18T02:49:57;9.10;5.80
827;DHT22;395;48.132;11.608;2023-05-18T02:52:22;9.10;5.90
827;DHT22;395;48.132;11.608;2023-05-18T02:54:48;9.10;5.90
827;DHT22;395;48.132;11.608;2023-05-18T02:57:14;9.00;5.90
827;DHT22;395;48.132;11.608;2023-05-18T02:59:39;9.10;6.20
827;DHT22;395;48.132;11.608;2023-05-18T03:02:06;9.10;6.20
827;DHT22;395;48.132;11.608;2023-05-18T03:04:32;9.10;6.20
827;DHT22;395;48.132;11.608;2023-05-18T03:06:57;9.10;6.30
827;DHT22;395;48.132;11.608;2023-05-18T03:09:27;9.10;6.50
827;DHT22;395;48.132;11.608;2023-05-18T03:11:52;9.10;6.50
827;DHT22;395;48.132;11.608;2023-05-18T03:14:18;9.00;6.70
827;DHT22;395;48.132;11.608;2023-05-18T03:16:44;9.00;6.70
827;DHT22;395;48.132;11.608;2023-05-18T03:19:09;9.00;7.00
827;DHT22;395;48.132;11.608;2023-05-18T03:21:35;9.00;7.20
827;DHT22;395;48.132;11.608;2023-05-18T03:24:01;9.00;7.40
827;DHT22;395;48.132;11.608;2023-05-18T03:26:27;8.90;7.60
827;DHT22;395;48.132;11.608;2023-05-18T03:28:56;8.90;7.90
827;DHT22;395;48.132;11.608;2023-05-18T03:31:23;8.90;8.20
827;DHT22;395;48.132;11.608;2023-05-18T03:33:49;8.90;8.50
827;DHT22;395;48.132;11.608;2023-05-18T03:36:15;8.90;8.90
827;DHT22;395;48.132;11.608;2023-05-18T03:38:41;8.80;9.20
827;DHT22;395;48.132;11.608;2023-05-18T03:41:10;8.80;9.60
827;DHT22;395;48.132;11.608;2023-05-18T03:43:36;8.70;10.00
827;DHT22;395;48.132;11.608;2023-05-18T03:46:02;8.70;10.20
827;DHT22;395;48.132;11.608;2023-05-18T03:48:28;8.70;10.50
827;DHT22;395;48.132;11.608;2023-05-18T03:50:54;8.70;11.30
827;DHT22;395;48.132;11.608;2023-05-18T03:53:20;8.70;10.80
827;DHT22;395;48.132;11.608;2023-05-18T03:55:46;8.70;10.80
827;DHT22;395;48.132;11.608;2023-05-18T03:58:14;8.70;10.90
827;DHT22;395;48.132;11.608;2023-05-18T04:00:40;8.70;11.10
827;DHT22;395;48.132;11.608;2023-05-18T04:03:08;8.70;11.60
827;DHT22;395;48.132;11.608;2023-05-18T04:05:37;8.70;11.90
827;DHT22;395;48.132;11.608;2023-05-18T04:08:03;8.70;12.10
827;DHT22;395;48.132;11.608;2023-05-18T04:10:29;8.70;12.50
827;DHT22;395;48.132;11.608;2023-05-18T04:12:55;8.80;12.90
827;DHT22;395;48.132;11.608;2023-05-18T04:15:21;8.80;13.10
827;DHT22;395;48.132;11.608;2023-05-18T04:17:49;8.80;13.10
827;DHT22;395;48.132;11.608;2023-05-18T04:20:15;8.80;13.30
827;DHT22;395;48.132;11.608;2023-05-18T04:22:44;8.80;13.20
827;DHT22;395;48.132;11.608;2023-05-18T04:25:16;8.80;13.70
827;DHT22;395;48.132;11.608;2023-05-18T04:27:42;8.80;14.20
827;DHT22;395;48.132;11.608;2023-05-18T04:30:10;8.80;14.50
827;DHT22;395;48.132;11.608;2023-05-18T04:32:37;8.70;15.00
827;DHT22;395;48.132;11.608;2023-05-18T04:35:04;8.80;14.60
827;DHT22;395;48.132;11.608;2023-05-18T04:37:31;8.80;14.60
827;DHT22;395;48.132;11.608;2023-05-18T04:39:58;8.90;14.70
827;DHT22;395;48.132;11.608;2023-05-18T04:42:27;8.90;14.60
827;DHT22;395;48.132;11.608;2023-05-18T04:44:53;8.90;14.80
827;DHT22;395;48.132;11.608;2023-05-18T04:47:19;9.00;14.70
827;DHT22;395;48.132;11.608;2023-05-18T04:49:48;9.00;14.70
827;DHT22;395;48.132;11.608;2023-05-18T04:52:19;9.10;14.80
827;DHT22;395;48.132;11.608;2023-05-18T04:54:46;9.10;14.80
827;DHT22;395;48.132;11.608;2023-05-18T04:57:12;9.10;14.70
827;DHT22;395;48.132;11.608;2023-05-18T04:59:39;9.10;14.50
827;DHT22;395;48.132;11.608;2023-05-18T05:02:05;9.10;14.60
827;DHT22;395;48.132;11.608;2023-05-18T05:04:31;9.20;14.80
827;DHT22;395;48.132;11.608;2023-05-18T05:06:57;9.20;14.80
827;DHT22;395;48.132;11.608;2023-05-18T05:09:22;9.20;14.80
827;DHT22;395;48.132;11.608;2023-05-18T05:11:48;9.20;14.70
827;DHT22;395;48.132;11.608;2023-05-18T05:14:14;9.20;14.80
827;DHT22;395;48.132;11.608;2023-05-18T05:16:39;9.20;14.60
827;DHT22;395;48.132;11.608;2023-05-18T05:19:05;9.30;14.60
827;DHT22;395;48.132;11.608;2023-05-18T05:21:31;9.40;14.60
827;DHT22;395;48.132;11.608;2023-05-18T05:23:57;9.40;14.50
827;DHT22;395;48.132;11.608;2023-05-18T05:26:23;9.40;14.50
827;DHT22;395;48.132;11.608;2023-05-18T05:28:48;9.50;14.50
827;DHT22;395;48.132;11.608;2023-05-18T05:31:14;9.60;14.80
827;DHT22;395;48.132;11.608;2023-05-18T05:33:40;9.60;14.60
827;DHT22;395;48.132;11.608;2023-05-18T05:36:06;9.60;14.60
827;DHT22;395;48.132;11.608;2023-05-18T05:38:33;9.60;14.70
827;DHT22;395;48.132;11.608;2023-05-18T05:40:58;9.70;14.60
827;DHT22;395;48.132;11.608;2023-05-18T05:43:24;9.70;14.40
827;DHT22;395;48.132;11.608;2023-05-18T05:45:50;9.80;14.30
827;DHT22;395;48.132;11.608;2023-05-18T05:48:15;9.90;14.90
827;DHT22;395;48.132;11.608;2023-05-18T05:50:41;9.90;13.90
827;DHT22;395;48.132;11.608;2023-05-18T05:53:07;9.90;13.20
827;DHT22;395;48.132;11.608;2023-05-18T05:55:34;10.00;11.90
827;DHT22;395;48.132;11.608;2023-05-18T05:58:05;10.10;11.10
827;DHT22;395;48.132;11.608;2023-05-18T06:00:31;10.10;10.10
827;DHT22;395;48.132;11.608;2023-05-18T06:02:58;10.10;10.00
827;DHT22;395;48.132;11.608;2023-05-18T06:05:24;10.20;9.00
827;DHT22;395;48.132;11.608;2023-05-18T06:07:50;10.20;8.90
827;DHT22;395;48.132;11.608;2023-05-18T06:10:16;10.20;8.80
827;DHT22;395;48.132;11.608;2023-05-18T06:12:42;10.30;8.50
827;DHT22;395;48.132;11.608;2023-05-18T06:15:08;10.40;8.20
827;DHT22;395;48.132;11.608;2023-05-18T06:17:34;10.40;7.50
827;DHT22;395;48.132;11.608;2023-05-18T06:19:59;10.40;6.30
827;DHT22;395;48.132;11.608;2023-05-18T06:22:25;10.50;6.40
827;DHT22;395;48.132;11.608;2023-05-18T06:24:51;10.50;5.60
827;DHT22;395;48.132;11.608;2023-05-18T06:27:18;10.60;5.80
827;DHT22;395;48.132;11.608;2023-05-18T06:29:43;10.60;6.10
827;DHT22;395;48.132;11.608;2023-05-18T06:32:11;10.60;5.60
827;DHT22;395;48.132;11.608;2023-05-18T06:34:36;10.70;5.70
827;DHT22;395;48.132;11.608;2023-05-18T06:37:02;10.70;5.60
827;DHT22;395;48.132;11.608;2023-05-18T06:39:28;10.80;5.60
827;DHT22;395;48.132;11.608;2023-05-18T06:41:53;10.80;5.30
827;DHT22;395;48.132;11.608;2023-05-18T06:44:19;10.80;4.50
827;DHT22;395;48.132;11.608;2023-05-18T06:46:46;10.80;4.70
827;DHT22;395;48.132;11.608;2023-05-18T06:49:13;10.80;4.90
827;DHT22;395;48.132;11.608;2023-05-18T06:51:39;10.90;5.20
827;DHT22;395;48.132;11.608;2023-05-18T06:54:05;11.00;4.80
827;DHT22;395;48.132;11.608;2023-05-18T06:56:31;11.00;4.20
827;DHT22;395;48.132;11.608;2023-05-18T06:58:57;11.10;4.30
827;DHT22;395;48.132;11.608;2023-05-18T07:01:22;11.20;3.70
827;DHT22;395;48.132;11.608;2023-05-18T07:03:48;11.30;3.70
827;DHT22;395;48.132;11.608;2023-05-18T07:06:14;11.30;3.00
827;DHT22;395;48.132;11.608;2023-05-18T07:08:40;11.50;2.80
827;DHT22;395;48.132;11.608;2023-05-18T07:11:05;11.50;1.40
827;DHT22;395;48.132;11.608;2023-05-18T07:13:31;11.60;1.00
827;DHT22;395;48.132;11.608;2023-05-18T07:15:58;11.60;1.00
827;DHT22;395;48.132;11.608;2023-05-18T07:18:24;11.70;1.00
827;DHT22;395;48.132;11.608;2023-05-18T07:20:51;11.80;1.00
827;DHT22;395;48.132;11.608;2023-05-18T07:23:16;11.90;1.00
827;DHT22;395;48.132;11.608;2023-05-18T07:25:42;12.00;1.00
827;DHT22;395;48.132;11.608;2023-05-18T07:28:08;12.10;1.00
827;DHT22;395;48.132;11.608;2023-05-18T07:30:34;12.10;1.00
827;DHT22;395;48.132;11.608;2023-05-18T07:32:59;12.20;1.00
827;DHT22;395;48.132;11.608;2023-05-18T07:35:25;12.20;1.00
827;DHT22;395;48.132;11.608;2023-05-18T07:37:51;12.40;1.00
827;DHT22;395;48.132;11.608;2023-05-18T07:40:18;12.30;1.00
827;DHT22;395;48.132;11.608;2023-05-18T07:42:44;12.30;1.00
827;DHT22;395;48.132;11.608;2023-05-18T07:45:10;12.40;1.00
827;DHT22;395;48.132;11.608;2023-05-18T07:47:36;12.50;1.00
827;DHT22;395;48.132;11.608;2023-05-18T07:50:02;12.50;1.00
827;DHT22;395;48.132;11.608;2023-05-18T07:52:28;12.70;1.00
827;DHT22;395;48.132;11.608;2023-05-18T07:54:56;12.90;1.00
827;DHT22;395;48.132;11.608;2023-05-18T07:57:22;12.90;1.00
827;DHT22;395;48.132;11.608;2023-05-18T07:59:49;12.90;1.00
827;DHT22;395;48.132;11.608;2023-05-18T08:02:14;12.90;1.00
827;DHT22;395;48.132;11.608;2023-05-18T08:04:44;13.00;1.00
827;DHT22;395;48.132;11.608;2023-05-18T08:07:11;13.00;1.00
827;DHT22;395;48.132;11.608;2023-05-18T08:09:37;13.00;1.00
827;DHT22;395;48.132;11.608;2023-05-18T08:12:03;12.90;1.00
827;DHT22;395;48.132;11.608;2023-05-18T08:14:29;12.80;1.00
827;DHT22;395;48.132;11.608;2023-05-18T08:16:55;12.80;1.00
827;DHT22;395;48.132;11.608;2023-05-18T08:19:21;12.80;1.00
827;DHT22;395;48.132;11.608;2023-05-18T08:21:46;12.90;1.00
827;DHT22;395;48.132;11.608;2023-05-18T08:24:12;12.90;1.00
827;DHT22;395;48.132;11.608;2023-05-18T08:26:38;12.80;1.00
827;DHT22;395;48.132;11.608;2023-05-18T08:29:04;12.90;1.00
827;DHT22;395;48.132;11.608;2023-05-18T08:31:35;12.80;1.00
827;DHT22;395;48.132;11.608;2023-05-18T08:34:05;12.80;1.00
827;DHT22;395;48.132;11.608;2023-05-18T08:36:32;12.90;1.00
827;DHT22;395;48.132;11.608;2023-05-18T08:38:59;12.90;1.00
827;DHT22;395;48.132;11.608;2023-05-18T08:41:29;13.00;1.00
827;DHT22;395;48.132;11.608;2023-05-18T08:44:08;13.10;1.00
827;DHT22;395;48.132;11.608;2023-05-18T08:46:38;13.30;1.00
827;DHT22;395;48.132;11.608;2023-05-18T08:49:04;13.40;1.00
827;DHT22;395;48.132;11.608;2023-05-18T08:51:34;13.40;1.00
827;DHT22;395;48.132;11.608;2023-05-18T08:54:00;13.50;1.00
827;DHT22;395;48.132;11.608;2023-05-18T08:56:30;13.60;1.00
827;DHT22;395;48.132;11.608;2023-05-18T08:58:57;13.80;1.00
827;DHT22;395;48.132;11.608;2023-05-18T09:01:24;13.80;1.00
827;DHT22;395;48.132;11.608;2023-05-18T09:03:54;13.80;1.00
827;DHT22;395;48.132;11.608;2023-05-18T09:06:22;13.80;1.00
827;DHT22;395;48.132;11.608;2023-05-18T09:08:54;13.90;1.00
827;DHT22;395;48.132;11.608;2023-05-18T09:11:24;13.90;1.00
827;DHT22;395;48.132;11.608;2023-05-18T09:13:50;13.90;1.00
827;DHT22;395;48.132;11.608;2023-05-18T09:16:16;13.90;1.00
827;DHT22;395;48.132;11.608;2023-05-18T09:18:42;14.00;1.00
827;DHT22;395;48.132;11.608;2023-05-18T09:21:08;14.00;1.00
827;DHT22;395;48.132;11.608;2023-05-18T09:23:34;14.10;1.00
827;DHT22;395;48.132;11.608;2023-05-18T09:26:00;14.30;1.00
827;DHT22;395;48.132;11.608;2023-05-18T09:28:37;14.30;1.00
827;DHT22;395;48.132;11.608;2023-05-18T09:31:03;14.20;1.00
827;DHT22;395;48.132;11.608;2023-05-18T09:33:34;14.20;1.00
827;DHT22;395;48.132;11.608;2023-05-18T09:36:01;14.20;1.00
827;DHT22;395;48.132;11.608;2023-05-18T09:38:28;14.40;1.00
827;DHT22;395;48.132;11.608;2023-05-18T09:40:53;14.50;1.00
827;DHT22;395;48.132;11.608;2023-05-18T09:43:20;14.50;1.00
827;DHT22;395;48.132;11.608;2023-05-18T09:45:47;14.60;1.00
827;DHT22;395;48.132;11.608;2023-05-18T09:48:16;14.60;1.00
827;DHT22;395;48.132;11.608;2023-05-18T09:50:43;14.70;1.00
827;DHT22;395;48.132;11.608;2023-05-18T09:53:11;14.70;1.00
827;DHT22;395;48.132;11.608;2023-05-18T09:55:44;14.80;1.00
827;DHT22;395;48.132;11.608;2023-05-18T09:58:10;14.80;1.00
827;DHT22;395;48.132;11.608;2023-05-18T10:00:39;14.90;1.00
827;DHT22;395;48.132;11.608;2023-05-18T10:03:18;15.00;1.00
827;DHT22;395;48.132;11.608;2023-05-18T10:05:45;15.00;1.00
827;DHT22;395;48.132;11.608;2023-05-18T10:08:12;15.10;1.00
827;DHT22;395;48.132;11.608;2023-05-18T10:10:40;15.20;1.00
827;DHT22;395;48.132;11.608;2023-05-18T10:13:14;15.30;1.00
827;DHT22;395;48.132;11.608;2023-05-18T10:15:50;15.20;1.00
827;DHT22;395;48.132;11.608;2023-05-18T10:18:37;15.30;1.00
827;DHT22;395;48.132;11.608;2023-05-18T10:21:05;15.30;1.00
827;DHT22;395;48.132;11.608;2023-05-18T10:23:33;15.40;1.00
827;DHT22;395;48.132;11.608;2023-05-18T10:25:59;15.50;1.00
827;DHT22;395;48.132;11.608;2023-05-18T10:28:42;15.50;1.00
827;DHT22;395;48.132;11.608;2023-05-18T10:31:08;15.50;1.00
827;DHT22;395;48.132;11.608;2023-05-18T10:33:35;15.60;1.00
827;DHT22;395;48.132;11.608;2023-05-18T10:36:05;15.60;1.00
827;DHT22;395;48.132;11.608;2023-05-18T10:38:32;15.50;1.00
827;DHT22;395;48.132;11.608;2023-05-18T10:40:59;15.50;1.00
827;DHT22;395;48.132;11.608;2023-05-18T10:43:26;15.60;1.00
827;DHT22;395;48.132;11.608;2023-05-18T10:45:53;15.60;1.00
827;DHT22;395;48.132;11.608;2023-05-18T10:48:20;15.70;1.00
827;DHT22;395;48.132;11.608;2023-05-18T10:50:51;15.70;1.00
827;DHT22;395;48.132;11.608;2023-05-18T10:53:18;15.80;1.00
827;DHT22;395;48.132;11.608;2023-05-18T10:55:47;15.90;1.00
827;DHT22;395;48.132;11.608;2023-05-18T10:58:19;16.00;1.00
827;DHT22;395;48.132;11.608;2023-05-18T11:01:05;16.00;1.00
827;DHT22;395;48.132;11.608;2023-05-18T11:03:33;16.00;1.00
827;DHT22;395;48.132;11.608;2023-05-18T11:06:06;15.90;1.00
827;DHT22;395;48.132;11.608;2023-05-18T11:08:33;15.90;1.00
827;DHT22;395;48.132;11.608;2023-05-18T11:11:06;16.00;1.00
827;DHT22;395;48.132;11.608;2023-05-18T11:13:33;15.90;1.00
827;DHT22;395;48.132;11.608;2023-05-18T11:24:16;15.50;1.00
827;DHT22;395;48.132;11.608;2023-05-18T11:26:54;15.40;1.00
827;DHT22;395;48.132;11.608;2023-05-18T11:29:29;15.40;1.00
827;DHT22;395;48.132;11.608;2023-05-18T11:31:55;15.30;1.00
827;DHT22;395;48.132;11.608;2023-05-18T11:34:42;15.40;1.00
827;DHT22;395;48.132;11.608;2023-05-18T11:37:13;15.60;1.00
827;DHT22;395;48.132;11.608;2023-05-18T11:39:39;15.80;1.00
827;DHT22;395;48.132;11.608;2023-05-18T11:42:10;15.70;1.00
827;DHT22;395;48.132;11.608;2023-05-18T11:44:37;15.80;1.00
827;DHT22;395;48.132;11.608;2023-05-18T11:47:10;15.80;1.00
827;DHT22;395;48.132;11.608;2023-05-18T11:49:49;16.00;1.00
827;DHT22;395;48.132;11.608;2023-05-18T11:52:22;16.10;1.00
827;DHT22;395;48.132;11.608;2023-05-18T11:54:58;16.20;1.00
827;DHT22;395;48.132;11.608;2023-05-18T11:57:37;16.30;1.00
827;DHT22;395;48.132;11.608;2023-05-18T12:00:08;16.50;1.00
827;DHT22;395;48.132;11.608;2023-05-18T12:02:36;16.70;1.00
827;DHT22;395;48.132;11.608;2023-05-18T12:05:06;16.60;1.00
827;DHT22;395;48.132;11.608;2023-05-18T12:07:33;16.50;1.00
827;DHT22;395;48.132;11.608;2023-05-18T12:10:11;16.50;1.00
827;DHT22;395;48.132;11.608;2023-05-18T12:12:37;16.50;1.00
827;DHT22;395;48.132;11.608;2023-05-18T12:15:09;16.50;1.00
827;DHT22;395;48.132;11.608;2023-05-18T12:20:12;16.60;1.00
827;DHT22;395;48.132;11.608;2023-05-18T12:22:38;16.50;1.00
827;DHT22;395;48.132;11.608;2023-05-18T12:25:05;16.60;1.00
827;DHT22;395;48.132;11.608;2023-05-18T12:27:39;16.60;1.00
827;DHT22;395;48.132;11.608;2023-05-18T12:32:59;16.60;1.00
827;DHT22;395;48.132;11.608;2023-05-18T12:35:28;16.60;1.00
827;DHT22;395;48.132;11.608;2023-05-18T12:37:55;16.60;1.00
827;DHT22;395;48.132;11.608;2023-05-18T12:40:21;16.60;1.00
827;DHT22;395;48.132;11.608;2023-05-18T12:42:57;16.50;1.00
827;DHT22;395;48.132;11.608;2023-05-18T12:45:30;16.50;1.00
827;DHT22;395;48.132;11.608;2023-05-18T12:48:03;16.60;1.00
827;DHT22;395;48.132;11.608;2023-05-18T12:50:29;16.70;1.00
827;DHT22;395;48.132;11.608;2023-05-18T12:52:55;16.70;1.00
827;DHT22;395;48.132;11.608;2023-05-18T12:55:21;16.60;1.00
827;DHT22;395;48.132;11.608;2023-05-18T12:58:04;16.60;1.00
827;DHT22;395;48.132;11.608;2023-05-18T13:00:32;16.70;1.00
827;DHT22;395;48.132;11.608;2023-05-18T13:03:08;16.70;1.00
827;DHT22;395;48.132;11.608;2023-05-18T13:05:35;16.70;1.00
827;DHT22;395;48.132;11.608;2023-05-18T13:08:01;16.80;1.00
827;DHT22;395;48.132;11.608;2023-05-18T13:10:31;16.80;1.00
827;DHT22;395;48.132;11.608;2023-05-18T13:12:58;16.80;1.00
827;DHT22;395;48.132;11.608;2023-05-18T13:15:32;16.80;1.00
827;DHT22;395;48.132;11.608;2023-05-18T13:18:06;16.80;1.00
827;DHT22;395;48.132;11.608;2023-05-18T13:20:42;16.70;1.00
827;DHT22;395;48.132;11.608;2023-05-18T13:23:16;16.50;1.00
827;DHT22;395;48.132;11.608;2023-05-18T13:25:42;16.40;1.00
827;DHT22;395;48.132;11.608;2023-05-18T13:28:10;16.30;1.00
827;DHT22;395;48.132;11.608;2023-05-18T13:30:36;16.20;1.00
827;DHT22;395;48.132;11.608;2023-05-18T13:33:04;16.20;1.00
827;DHT22;395;48.132;11.608;2023-05-18T13:35:30;16.10;1.00
827;DHT22;395;48.132;11.608;2023-05-18T13:37:55;16.10;1.00
827;DHT22;395;48.132;11.608;2023-05-18T13:40:21;16.00;1.00
827;DHT22;395;48.132;11.608;2023-05-18T13:42:49;16.00;1.00
827;DHT22;395;48.132;11.608;2023-05-18T13:45:16;15.90;1.00
827;DHT22;395;48.132;11.608;2023-05-18T13:47:43;15.90;1.00
827;DHT22;395;48.132;11.608;2023-05-18T13:50:12;16.10;1.00
827;DHT22;395;48.132;11.608;2023-05-18T13:52:37;16.20;1.00
827;DHT22;395;48.132;11.608;2023-05-18T13:55:05;16.40;1.00
827;DHT22;395;48.132;11.608;2023-05-18T13:57:31;16.50;1.00
827;DHT22;395;48.132;11.608;2023-05-18T13:59:57;16.70;1.00
827;DHT22;395;48.132;11.608;2023-05-18T14:02:24;16.80;1.00
827;DHT22;395;48.132;11.608;2023-05-18T14:04:50;16.80;1.00
827;DHT22;395;48.132;11.608;2023-05-18T14:07:17;16.80;1.00
827;DHT22;395;48.132;11.608;2023-05-18T14:09:42;16.70;1.00
827;DHT22;395;48.132;11.608;2023-05-18T14:12:08;16.60;1.00
827;DHT22;395;48.132;11.608;2023-05-18T14:14:35;16.50;1.00
827;DHT22;395;48.132;11.608;2023-05-18T14:17:01;16.40;1.00
827;DHT22;395;48.132;11.608;2023-05-18T14:19:27;16.30;1.00
827;DHT22;395;48.132;11.608;2023-05-18T14:21:53;16.20;1.00
827;DHT22;395;48.132;11.608;2023-05-18T14:24:18;16.20;1.00
827;DHT22;395;48.132;11.608;2023-05-18T14:26:44;16.00;1.00
827;DHT22;395;48.132;11.608;2023-05-18T14:29:10;16.00;1.00
827;DHT22;395;48.132;11.608;2023-05-18T14:31:35;16.00;1.00
827;DHT22;395;48.132;11.608;2023-05-18T14:34:01;16.00;1.00
827;DHT22;395;48.132;11.608;2023-05-18T14:36:28;15.90;1.00
827;DHT22;395;48.132;11.608;2023-05-18T14:38:54;15.80;1.00
827;DHT22;395;48.132;11.608;2023-05-18T14:41:19;15.70;1.00
827;DHT22;395;48.132;11.608;2023-05-18T14:43:48;15.70;1.00
827;DHT22;395;48.132;11.608;2023-05-18T14:46:15;15.50;1.00
827;DHT22;395;48.132;11.608;2023-05-18T14:48:41;15.50;1.00
827;DHT22;395;48.132;11.608;2023-05-18T14:51:07;15.50;1.00
827;DHT22;395;48.132;11.608;2023-05-18T14:53:32;15.50;1.00
827;DHT22;395;48.132;11.608;2023-05-18T14:55:58;15.40;1.00
827;DHT22;395;48.132;11.608;2023-05-18T14:58:24;15.30;1.00
827;DHT22;395;48.132;11.608;2023-05-18T15:00:50;15.20;1.00
827;DHT22;395;48.132;11.608;2023-05-18T15:03:15;15.10;1.00
827;DHT22;395;48.132;11.608;2023-05-18T15:05:41;15.10;1.00
827;DHT22;395;48.132;11.608;2023-05-18T15:08:08;15.00;1.00
827;DHT22;395;48.132;11.608;2023-05-18T15:10:34;15.00;1.00
827;DHT22;395;48.132;11.608;2023-05-18T15:12:59;15.00;1.00
827;DHT22;395;48.132;11.608;2023-05-18T15:15:25;15.00;1.00
827;DHT22;395;48.132;11.608;2023-05-18T15:17:51;15.00;1.00
827;DHT22;395;48.132;11.608;2023-05-18T15:20:16;15.00;1.00
827;DHT22;395;48.132;11.608;2023-05-18T15:22:42;15.10;1.00
827;DHT22;395;48.132;11.608;2023-05-18T15:25:08;15.10;1.00
827;DHT22;395;48.132;11.608;2023-05-18T15:27:34;15.00;1.00
827;DHT22;395;48.132;11.608;2023-05-18T15:29:59;15.00;1.00
827;DHT22;395;48.132;11.608;2023-05-18T15:32:26;15.10;1.00
827;DHT22;395;48.132;11.608;2023-05-18T15:34:51;15.20;1.00
827;DHT22;395;48.132;11.608;2023-05-18T15:37:17;15.20;1.00
827;DHT22;395;48.132;11.608;2023-05-18T15:39:43;15.20;1.00
827;DHT22;395;48.132;11.608;2023-05-18T15:42:09;15.20;1.00
827;DHT22;395;48.132;11.608;2023-05-18T15:44:35;15.10;1.00
827;DHT22;395;48.132;11.608;2023-05-18T15:47:01;15.10;1.00
827;DHT22;395;48.132;11.608;2023-05-18T15:49:27;15.00;1.00
827;DHT22;395;48.132;11.608;2023-05-18T15:51:53;14.90;1.00
827;DHT22;395;48.132;11.608;2023-05-18T15:54:19;14.90;1.00
827;DHT22;395;48.132;11.608;2023-05-18T15:56:45;14.80;1.00
827;DHT22;395;48.132;11.608;2023-05-18T15:59:11;14.70;1.00
827;DHT22;395;48.132;11.608;2023-05-18T16:01:36;14.70;1.00
827;DHT22;395;48.132;11.608;2023-05-18T16:04:02;14.70;1.00
827;DHT22;395;48.132;11.608;2023-05-18T16:06:28;14.70;1.00
827;DHT22;395;48.132;11.608;2023-05-18T16:08:53;14.70;1.00
827;DHT22;395;48.132;11.608;2023-05-18T16:11:20;14.70;1.00
827;DHT22;395;48.132;11.608;2023-05-18T16:13:46;14.60;1.00
827;DHT22;395;48.132;11.608;2023-05-18T16:16:15;14.60;1.00
827;DHT22;395;48.132;11.608;2023-05-18T16:18:42;14.50;1.00
827;DHT22;395;48.132;11.608;2023-05-18T16:21:08;14.50;1.00
827;DHT22;395;48.132;11.608;2023-05-18T16:23:33;14.50;1.00
827;DHT22;395;48.132;11.608;2023-05-18T16:25:59;14.50;1.00
827;DHT22;395;48.132;11.608;2023-05-18T16:28:30;14.50;1.00
827;DHT22;395;48.132;11.608;2023-05-18T16:30:55;14.50;1.00
827;DHT22;395;48.132;11.608;2023-05-18T16:33:21;14.50;1.00
827;DHT22;395;48.132;11.608;2023-05-18T16:35:46;14.50;1.00
827;DHT22;395;48.132;11.608;2023-05-18T16:38:12;14.40;1.00
827;DHT22;395;48.132;11.608;2023-05-18T16:40:38;14.40;1.00
827;DHT22;395;48.132;11.608;2023-05-18T16:43:04;14.40;1.00
827;DHT22;395;48.132;11.608;2023-05-18T16:45:30;14.40;1.00
827;DHT22;395;48.132;11.608;2023-05-18T16:47:56;14.40;1.00
827;DHT22;395;48.132;11.608;2023-05-18T16:50:22;14.40;1.00
827;DHT22;395;48.132;11.608;2023-05-18T16:52:47;14.40;1.00
827;DHT22;395;48.132;11.608;2023-05-18T16:55:13;14.40;1.00
827;DHT22;395;48.132;11.608;2023-05-18T16:57:39;14.40;1.00
827;DHT22;395;48.132;11.608;2023-05-18T17:00:08;14.30;1.00